sensor_id;sensor_type;location;lat;lon;timestamp;temperature;humidity
31967;DHT22;18496;52.042;6.812;2023-04-06T00:01:50;9.70;65.00
31967;DHT22;18496;52.042;6.812;2023-04-06T00:03:53;9.60;65.30
31967;DHT22;18496;52.042;6.812;2023-04-06T00:05:57;9.60;65.50
31967;DHT22;18496;52.042;6.812;2023-04-06T00:08:01;9.60;65.60
31967;DHT22;18496;52.042;6.812;2023-04-06T00:10:05;9.60;65.40
31967;DHT22;18496;52.042;6.812;2023-04-06T00:12:09;9.60;65.50
31967;DHT22;18496;52.042;6.812;2023-04-06T00:14:13;9.50;65.50
31967;DHT22;18496;52.042;6.812;2023-04-06T00:16:17;9.40;65.80
31967;DHT22;18496;52.042;6.812;2023-04-06T00:18:22;9.40;66.00
31967;DHT22;18496;52.042;6.812;2023-04-06T00:20:28;9.40;66.20
31967;DHT22;18496;52.042;6.812;2023-04-06T00:22:33;9.30;66.40
31967;DHT22;18496;52.042;6.812;2023-04-06T00:24:36;9.30;66.50
31967;DHT22;18496;52.042;6.812;2023-04-06T00:26:42;9.30;66.60
31967;DHT22;18496;52.042;6.812;2023-04-06T00:28:49;9.30;66.30
31967;DHT22;18496;52.042;6.812;2023-04-06T00:30:55;9.30;66.30
31967;DHT22;18496;52.042;6.812;2023-04-06T00:33:01;9.20;67.00
31967;DHT22;18496;52.042;6.812;2023-04-06T00:35:06;9.10;66.80
31967;DHT22;18496;52.042;6.812;2023-04-06T00:37:12;9.10;66.90
31967;DHT22;18496;52.042;6.812;2023-04-06T00:39:17;9.10;67.30
31967;DHT22;18496;52.042;6.812;2023-04-06T00:41:20;9.00;67.20
31967;DHT22;18496;52.042;6.812;2023-04-06T00:43:24;8.90;67.40
31967;DHT22;18496;52.042;6.812;2023-04-06T00:45:28;9.00;67.60
31967;DHT22;18496;52.042;6.812;2023-04-06T00:47:33;8.90;67.70
31967;DHT22;18496;52.042;6.812;2023-04-06T00:49:37;8.80;67.90
31967;DHT22;18496;52.042;6.812;2023-04-06T00:51:43;8.80;68.00
31967;DHT22;18496;52.042;6.812;2023-04-06T00:53:49;8.80;68.10
31967;DHT22;18496;52.042;6.812;2023-04-06T00:56:01;8.80;68.00
31967;DHT22;18496;52.042;6.812;2023-04-06T00:58:06;8.70;68.20
31967;DHT22;18496;52.042;6.812;2023-04-06T01:00:24;8.70;68.40
31967;DHT22;18496;52.042;6.812;2023-04-06T01:02:35;8.70;68.50
31967;DHT22;18496;52.042;6.812;2023-04-06T01:04:39;8.70;68.60
31967;DHT22;18496;52.042;6.812;2023-04-06T01:06:49;8.70;68.50
31967;DHT22;18496;52.042;6.812;2023-04-06T01:08:53;8.70;68.70
31967;DHT22;18496;52.042;6.812;2023-04-06T01:11:00;8.60;68.70
31967;DHT22;18496;52.042;6.812;2023-04-06T01:13:07;8.60;68.80
31967;DHT22;18496;52.042;6.812;2023-04-06T01:15:38;8.60;69.20
31967;DHT22;18496;52.042;6.812;2023-04-06T01:17:44;8.60;69.10
31967;DHT22;18496;52.042;6.812;2023-04-06T01:19:52;8.70;69.20
31967;DHT22;18496;52.042;6.812;2023-04-06T01:22:03;8.70;69.10
31967;DHT22;18496;52.042;6.812;2023-04-06T01:24:07;8.60;69.10
31967;DHT22;18496;52.042;6.812;2023-04-06T01:26:26;8.50;69.00
31967;DHT22;18496;52.042;6.812;2023-04-06T01:28:33;8.50;69.50
31967;DHT22;18496;52.042;6.812;2023-04-06T01:30:44;8.40;69.70
31967;DHT22;18496;52.042;6.812;2023-04-06T01:33:01;8.30;70.20
31967;DHT22;18496;52.042;6.812;2023-04-06T01:35:19;8.30;70.10
31967;DHT22;18496;52.042;6.812;2023-04-06T01:37:33;8.20;70.00
31967;DHT22;18496;52.042;6.812;2023-04-06T01:39:42;8.20;70.10
31967;DHT22;18496;52.042;6.812;2023-04-06T01:41:48;8.20;70.20
31967;DHT22;18496;52.042;6.812;2023-04-06T01:43:54;8.20;70.60
31967;DHT22;18496;52.042;6.812;2023-04-06T01:46:01;8.20;70.60
31967;DHT22;18496;52.042;6.812;2023-04-06T01:48:12;8.20;70.60
31967;DHT22;18496;52.042;6.812;2023-04-06T01:50:15;8.20;70.40
31967;DHT22;18496;52.042;6.812;2023-04-06T01:52:23;8.10;70.50
31967;DHT22;18496;52.042;6.812;2023-04-06T01:54:30;8.10;70.90
31967;DHT22;18496;52.042;6.812;2023-04-06T01:56:53;8.00;71.30
31967;DHT22;18496;52.042;6.812;2023-04-06T01:59:05;8.10;71.20
31967;DHT22;18496;52.042;6.812;2023-04-06T02:01:15;8.10;71.10
31967;DHT22;18496;52.042;6.812;2023-04-06T02:03:29;8.10;71.20
31967;DHT22;18496;52.042;6.812;2023-04-06T02:05:41;8.10;71.20
31967;DHT22;18496;52.042;6.812;2023-04-06T02:08:00;8.00;71.30
31967;DHT22;18496;52.042;6.812;2023-04-06T02:10:13;7.90;71.50
31967;DHT22;18496;52.042;6.812;2023-04-06T02:12:17;7.90;71.60
31967;DHT22;18496;52.042;6.812;2023-04-06T02:14:24;7.90;71.70
31967;DHT22;18496;52.042;6.812;2023-04-06T02:16:30;7.90;71.80
31967;DHT22;18496;52.042;6.812;2023-04-06T02:18:37;7.80;71.90
31967;DHT22;18496;52.042;6.812;2023-04-06T02:20:41;7.80;72.10
31967;DHT22;18496;52.042;6.812;2023-04-06T02:22:45;7.90;72.00
31967;DHT22;18496;52.042;6.812;2023-04-06T02:24:51;7.90;71.90
31967;DHT22;18496;52.042;6.812;2023-04-06T02:26:55;7.90;71.70
31967;DHT22;18496;52.042;6.812;2023-04-06T02:28:58;8.00;71.70
31967;DHT22;18496;52.042;6.812;2023-04-06T02:31:02;7.90;71.70
31967;DHT22;18496;52.042;6.812;2023-04-06T02:33:10;7.90;71.90
31967;DHT22;18496;52.042;6.812;2023-04-06T02:35:20;7.80;72.20
31967;DHT22;18496;52.042;6.812;2023-04-06T02:37:28;7.80;72.20
31967;DHT22;18496;52.042;6.812;2023-04-06T02:39:32;7.80;72.30
31967;DHT22;18496;52.042;6.812;2023-04-06T02:41:36;7.70;72.10
31967;DHT22;18496;52.042;6.812;2023-04-06T02:43:41;7.70;72.30
31967;DHT22;18496;52.042;6.812;2023-04-06T02:46:02;7.70;72.20
31967;DHT22;18496;52.042;6.812;2023-04-06T02:48:09;7.60;72.50
31967;DHT22;18496;52.042;6.812;2023-04-06T02:50:14;7.60;72.70
31967;DHT22;18496;52.042;6.812;2023-04-06T02:52:25;7.60;72.90
31967;DHT22;18496;52.042;6.812;2023-04-06T02:54:29;7.60;72.70
31967;DHT22;18496;52.042;6.812;2023-04-06T02:56:33;7.60;72.60
31967;DHT22;18496;52.042;6.812;2023-04-06T02:58:36;7.60;72.70
31967;DHT22;18496;52.042;6.812;2023-04-06T03:00:40;7.50;72.60
31967;DHT22;18496;52.042;6.812;2023-04-06T03:02:45;7.50;72.50
31967;DHT22;18496;52.042;6.812;2023-04-06T03:04:52;7.50;72.20
31967;DHT22;18496;52.042;6.812;2023-04-06T03:07:02;7.50;72.40
31967;DHT22;18496;52.042;6.812;2023-04-06T03:09:13;7.50;72.60
31967;DHT22;18496;52.042;6.812;2023-04-06T03:11:20;7.50;72.50
31967;DHT22;18496;52.042;6.812;2023-04-06T03:13:25;7.50;72.50
31967;DHT22;18496;52.042;6.812;2023-04-06T03:15:32;7.50;72.70
31967;DHT22;18496;52.042;6.812;2023-04-06T03:17:47;7.40;72.80
31967;DHT22;18496;52.042;6.812;2023-04-06T03:20:07;7.40;72.80
31967;DHT22;18496;52.042;6.812;2023-04-06T03:22:13;7.40;73.00
31967;DHT22;18496;52.042;6.812;2023-04-06T03:24:17;7.40;73.90
31967;DHT22;18496;52.042;6.812;2023-04-06T03:26:21;7.40;73.20
31967;DHT22;18496;52.042;6.812;2023-04-06T03:28:27;7.40;72.90
31967;DHT22;18496;52.042;6.812;2023-04-06T03:30:37;7.30;73.40
31967;DHT22;18496;52.042;6.812;2023-04-06T03:32:41;7.20;73.40
31967;DHT22;18496;52.042;6.812;2023-04-06T03:34:45;7.20;73.50
31967;DHT22;18496;52.042;6.812;2023-04-06T03:36:48;7.10;73.70
31967;DHT22;18496;52.042;6.812;2023-04-06T03:38:54;7.10;74.00
31967;DHT22;18496;52.042;6.812;2023-04-06T03:40:58;7.10;73.90
31967;DHT22;18496;52.042;6.812;2023-04-06T03:43:04;7.10;74.00
31967;DHT22;18496;52.042;6.812;2023-04-06T03:45:11;7.10;73.90
31967;DHT22;18496;52.042;6.812;2023-04-06T03:47:22;7.10;73.80
31967;DHT22;18496;52.042;6.812;2023-04-06T03:49:27;7.10;73.80
31967;DHT22;18496;52.042;6.812;2023-04-06T03:51:31;7.10;73.90
31967;DHT22;18496;52.042;6.812;2023-04-06T03:53:35;7.10;73.90
31967;DHT22;18496;52.042;6.812;2023-04-06T03:55:40;7.10;74.10
31967;DHT22;18496;52.042;6.812;2023-04-06T03:57:44;7.10;74.10
31967;DHT22;18496;52.042;6.812;2023-04-06T03:59:47;7.10;74.20
31967;DHT22;18496;52.042;6.812;2023-04-06T04:01:51;7.10;74.40
31967;DHT22;18496;52.042;6.812;2023-04-06T04:03:55;7.00;74.40
31967;DHT22;18496;52.042;6.812;2023-04-06T04:05:58;7.10;74.40
31967;DHT22;18496;52.042;6.812;2023-04-06T04:08:03;7.10;74.40
31967;DHT22;18496;52.042;6.812;2023-04-06T04:10:08;7.10;74.30
31967;DHT22;18496;52.042;6.812;2023-04-06T04:12:12;7.10;74.30
31967;DHT22;18496;52.042;6.812;2023-04-06T04:14:15;7.10;74.30
31967;DHT22;18496;52.042;6.812;2023-04-06T04:16:19;7.00;74.50
31967;DHT22;18496;52.042;6.812;2023-04-06T04:18:23;7.00;74.70
31967;DHT22;18496;52.042;6.812;2023-04-06T04:20:27;7.00;74.70
31967;DHT22;18496;52.042;6.812;2023-04-06T04:22:33;7.00;74.60
31967;DHT22;18496;52.042;6.812;2023-04-06T04:24:44;7.00;75.40
31967;DHT22;18496;52.042;6.812;2023-04-06T04:26:48;7.00;74.70
31967;DHT22;18496;52.042;6.812;2023-04-06T04:28:52;7.10;74.40
31967;DHT22;18496;52.042;6.812;2023-04-06T04:30:56;7.10;74.30
31967;DHT22;18496;52.042;6.812;2023-04-06T04:33:00;7.00;74.40
31967;DHT22;18496;52.042;6.812;2023-04-06T04:35:05;6.90;74.50
31967;DHT22;18496;52.042;6.812;2023-04-06T04:37:15;7.00;74.80
31967;DHT22;18496;52.042;6.812;2023-04-06T04:39:31;7.00;74.40
31967;DHT22;18496;52.042;6.812;2023-04-06T04:41:40;7.00;74.20
31967;DHT22;18496;52.042;6.812;2023-04-06T04:43:46;7.00;74.20
31967;DHT22;18496;52.042;6.812;2023-04-06T04:45:53;7.00;74.10
31967;DHT22;18496;52.042;6.812;2023-04-06T04:48:18;7.00;73.90
31967;DHT22;18496;52.042;6.812;2023-04-06T04:50:33;7.00;74.00
31967;DHT22;18496;52.042;6.812;2023-04-06T04:52:37;7.00;74.20
31967;DHT22;18496;52.042;6.812;2023-04-06T04:55:01;7.00;74.30
31967;DHT22;18496;52.042;6.812;2023-04-06T04:57:06;7.00;74.00
31967;DHT22;18496;52.042;6.812;2023-04-06T04:59:20;6.90;74.30
31967;DHT22;18496;52.042;6.812;2023-04-06T05:01:31;7.00;74.50
31967;DHT22;18496;52.042;6.812;2023-04-06T05:03:38;7.00;74.40
31967;DHT22;18496;52.042;6.812;2023-04-06T05:05:45;7.00;74.70
31967;DHT22;18496;52.042;6.812;2023-04-06T05:07:51;6.90;74.70
31967;DHT22;18496;52.042;6.812;2023-04-06T05:10:07;6.90;74.70
31967;DHT22;18496;52.042;6.812;2023-04-06T05:12:19;6.90;74.50
31967;DHT22;18496;52.042;6.812;2023-04-06T05:14:39;6.90;74.70
31967;DHT22;18496;52.042;6.812;2023-04-06T05:16:49;6.90;74.70
31967;DHT22;18496;52.042;6.812;2023-04-06T05:18:53;7.00;74.90
31967;DHT22;18496;52.042;6.812;2023-04-06T05:20:57;7.00;74.80
31967;DHT22;18496;52.042;6.812;2023-04-06T05:23:08;7.00;74.90
31967;DHT22;18496;52.042;6.812;2023-04-06T05:25:13;7.00;74.70
31967;DHT22;18496;52.042;6.812;2023-04-06T05:27:17;7.00;74.90
31967;DHT22;18496;52.042;6.812;2023-04-06T05:29:21;7.00;74.80
31967;DHT22;18496;52.042;6.812;2023-04-06T05:31:25;7.10;74.70
31967;DHT22;18496;52.042;6.812;2023-04-06T05:33:29;7.10;74.70
31967;DHT22;18496;52.042;6.812;2023-04-06T05:35:48;7.00;74.90
31967;DHT22;18496;52.042;6.812;2023-04-06T05:37:52;7.00;74.90
31967;DHT22;18496;52.042;6.812;2023-04-06T05:39:59;7.00;74.80
31967;DHT22;18496;52.042;6.812;2023-04-06T05:42:04;7.00;75.00
31967;DHT22;18496;52.042;6.812;2023-04-06T05:44:25;7.10;75.10
31967;DHT22;18496;52.042;6.812;2023-04-06T05:46:39;7.10;75.00
31967;DHT22;18496;52.042;6.812;2023-04-06T05:48:44;7.20;75.10
31967;DHT22;18496;52.042;6.812;2023-04-06T05:50:50;7.20;75.10
31967;DHT22;18496;52.042;6.812;2023-04-06T05:52:57;7.30;75.40
31967;DHT22;18496;52.042;6.812;2023-04-06T05:55:07;7.40;75.20
31967;DHT22;18496;52.042;6.812;2023-04-06T05:57:10;7.50;74.80
31967;DHT22;18496;52.042;6.812;2023-04-06T05:59:16;7.40;74.30
31967;DHT22;18496;52.042;6.812;2023-04-06T06:01:21;7.40;74.30
31967;DHT22;18496;52.042;6.812;2023-04-06T06:03:25;7.40;75.10
31967;DHT22;18496;52.042;6.812;2023-04-06T06:05:32;7.40;74.50
31967;DHT22;18496;52.042;6.812;2023-04-06T06:07:43;7.50;74.10
31967;DHT22;18496;52.042;6.812;2023-04-06T06:09:48;7.50;73.80
31967;DHT22;18496;52.042;6.812;2023-04-06T06:12:00;7.50;74.30
31967;DHT22;18496;52.042;6.812;2023-04-06T06:14:06;7.50;73.90
31967;DHT22;18496;52.042;6.812;2023-04-06T06:16:13;7.60;74.20
31967;DHT22;18496;52.042;6.812;2023-04-06T06:18:21;7.60;73.90
31967;DHT22;18496;52.042;6.812;2023-04-06T06:20:28;7.50;74.00
31967;DHT22;18496;52.042;6.812;2023-04-06T06:22:33;7.50;74.10
31967;DHT22;18496;52.042;6.812;2023-04-06T06:24:37;7.50;74.20
31967;DHT22;18496;52.042;6.812;2023-04-06T06:26:40;7.50;74.20
31967;DHT22;18496;52.042;6.812;2023-04-06T06:28:46;7.50;74.00
31967;DHT22;18496;52.042;6.812;2023-04-06T06:30:51;7.50;74.80
31967;DHT22;18496;52.042;6.812;2023-04-06T06:32:58;7.50;74.40
31967;DHT22;18496;52.042;6.812;2023-04-06T06:35:04;7.50;74.20
31967;DHT22;18496;52.042;6.812;2023-04-06T06:37:07;7.50;74.50
31967;DHT22;18496;52.042;6.812;2023-04-06T06:39:13;7.60;75.40
31967;DHT22;18496;52.042;6.812;2023-04-06T06:41:17;7.70;75.60
31967;DHT22;18496;52.042;6.812;2023-04-06T06:43:21;7.70;76.70
31967;DHT22;18496;52.042;6.812;2023-04-06T06:45:40;7.90;76.70
31967;DHT22;18496;52.042;6.812;2023-04-06T06:47:44;7.90;74.80
31967;DHT22;18496;52.042;6.812;2023-04-06T06:49:48;8.00;74.20
31967;DHT22;18496;52.042;6.812;2023-04-06T06:51:52;8.00;74.30
31967;DHT22;18496;52.042;6.812;2023-04-06T06:53:56;8.00;74.30
31967;DHT22;18496;52.042;6.812;2023-04-06T06:55:59;8.00;74.30
31967;DHT22;18496;52.042;6.812;2023-04-06T06:58:03;8.10;74.30
31967;DHT22;18496;52.042;6.812;2023-04-06T07:00:08;8.10;74.70
31967;DHT22;18496;52.042;6.812;2023-04-06T07:02:12;8.10;73.70
31967;DHT22;18496;52.042;6.812;2023-04-06T07:04:16;8.10;75.40
31967;DHT22;18496;52.042;6.812;2023-04-06T07:06:20;8.10;73.90
31967;DHT22;18496;52.042;6.812;2023-04-06T07:08:24;8.10;74.00
31967;DHT22;18496;52.042;6.812;2023-04-06T07:10:28;8.10;74.30
31967;DHT22;18496;52.042;6.812;2023-04-06T07:12:31;8.10;74.20
31967;DHT22;18496;52.042;6.812;2023-04-06T07:14:35;8.10;73.70
31967;DHT22;18496;52.042;6.812;2023-04-06T07:16:40;8.20;74.30
31967;DHT22;18496;52.042;6.812;2023-04-06T07:18:44;8.30;75.40
31967;DHT22;18496;52.042;6.812;2023-04-06T07:20:48;8.30;74.30
31967;DHT22;18496;52.042;6.812;2023-04-06T07:22:53;8.30;74.70
31967;DHT22;18496;52.042;6.812;2023-04-06T07:24:57;8.30;75.10
31967;DHT22;18496;52.042;6.812;2023-04-06T07:27:01;8.40;75.50
31967;DHT22;18496;52.042;6.812;2023-04-06T07:29:05;8.40;74.80
31967;DHT22;18496;52.042;6.812;2023-04-06T07:31:09;8.40;75.60
31967;DHT22;18496;52.042;6.812;2023-04-06T07:33:13;8.50;76.00
31967;DHT22;18496;52.042;6.812;2023-04-06T07:35:18;8.50;75.10
31967;DHT22;18496;52.042;6.812;2023-04-06T07:37:22;8.50;75.00
31967;DHT22;18496;52.042;6.812;2023-04-06T07:39:25;8.50;75.10
31967;DHT22;18496;52.042;6.812;2023-04-06T07:41:31;8.60;75.40
31967;DHT22;18496;52.042;6.812;2023-04-06T07:43:35;8.60;75.60
31967;DHT22;18496;52.042;6.812;2023-04-06T07:45:39;8.70;75.50
31967;DHT22;18496;52.042;6.812;2023-04-06T07:47:43;8.70;75.50
31967;DHT22;18496;52.042;6.812;2023-04-06T07:49:47;8.70;76.10
31967;DHT22;18496;52.042;6.812;2023-04-06T07:51:51;8.70;75.90
31967;DHT22;18496;52.042;6.812;2023-04-06T07:53:55;8.80;76.30
31967;DHT22;18496;52.042;6.812;2023-04-06T07:55:59;8.90;76.40
31967;DHT22;18496;52.042;6.812;2023-04-06T07:58:02;8.90;76.60
31967;DHT22;18496;52.042;6.812;2023-04-06T08:00:06;9.00;75.70
31967;DHT22;18496;52.042;6.812;2023-04-06T08:02:15;9.10;76.30
31967;DHT22;18496;52.042;6.812;2023-04-06T08:04:20;9.10;75.20
31967;DHT22;18496;52.042;6.812;2023-04-06T08:06:24;9.20;75.60
31967;DHT22;18496;52.042;6.812;2023-04-06T08:08:28;9.30;74.80
31967;DHT22;18496;52.042;6.812;2023-04-06T08:10:32;9.30;74.60
31967;DHT22;18496;52.042;6.812;2023-04-06T08:12:37;9.40;74.90
31967;DHT22;18496;52.042;6.812;2023-04-06T08:14:41;9.50;74.50
31967;DHT22;18496;52.042;6.812;2023-04-06T08:16:45;9.60;74.60
31967;DHT22;18496;52.042;6.812;2023-04-06T08:18:48;9.70;74.40
31967;DHT22;18496;52.042;6.812;2023-04-06T08:20:52;9.80;74.50
31967;DHT22;18496;52.042;6.812;2023-04-06T08:22:56;9.90;74.10
31967;DHT22;18496;52.042;6.812;2023-04-06T08:24:59;9.90;73.50
31967;DHT22;18496;52.042;6.812;2023-04-06T08:27:03;10.00;73.10
31967;DHT22;18496;52.042;6.812;2023-04-06T08:29:07;10.10;73.40
31967;DHT22;18496;52.042;6.812;2023-04-06T08:31:10;10.20;73.00
31967;DHT22;18496;52.042;6.812;2023-04-06T08:33:14;10.20;73.00
31967;DHT22;18496;52.042;6.812;2023-04-06T08:35:18;10.30;72.50
31967;DHT22;18496;52.042;6.812;2023-04-06T08:37:22;10.30;72.20
31967;DHT22;18496;52.042;6.812;2023-04-06T08:39:26;10.40;71.90
31967;DHT22;18496;52.042;6.812;2023-04-06T08:41:31;10.40;72.10
31967;DHT22;18496;52.042;6.812;2023-04-06T08:43:43;10.40;72.20
31967;DHT22;18496;52.042;6.812;2023-04-06T08:45:48;10.40;72.00
31967;DHT22;18496;52.042;6.812;2023-04-06T08:47:52;10.50;71.70
31967;DHT22;18496;52.042;6.812;2023-04-06T08:49:57;10.50;72.20
31967;DHT22;18496;52.042;6.812;2023-04-06T08:52:01;10.60;71.60
31967;DHT22;18496;52.042;6.812;2023-04-06T08:54:05;10.70;71.40
31967;DHT22;18496;52.042;6.812;2023-04-06T08:56:09;10.70;70.90
31967;DHT22;18496;52.042;6.812;2023-04-06T08:58:13;10.80;70.10
31967;DHT22;18496;52.042;6.812;2023-04-06T09:00:18;10.80;70.10
31967;DHT22;18496;52.042;6.812;2023-04-06T09:02:21;10.90;70.00
31967;DHT22;18496;52.042;6.812;2023-04-06T09:04:26;10.90;69.80
31967;DHT22;18496;52.042;6.812;2023-04-06T09:06:30;11.00;69.80
31967;DHT22;18496;52.042;6.812;2023-04-06T09:08:34;11.00;69.80
31967;DHT22;18496;52.042;6.812;2023-04-06T09:10:42;11.00;69.30
31967;DHT22;18496;52.042;6.812;2023-04-06T09:12:45;11.10;67.60
31967;DHT22;18496;52.042;6.812;2023-04-06T09:14:49;11.20;67.20
31967;DHT22;18496;52.042;6.812;2023-04-06T09:16:52;11.20;68.20
31967;DHT22;18496;52.042;6.812;2023-04-06T09:19:04;11.20;68.20
31967;DHT22;18496;52.042;6.812;2023-04-06T09:21:09;11.30;67.20
31967;DHT22;18496;52.042;6.812;2023-04-06T09:23:19;11.30;68.80
31967;DHT22;18496;52.042;6.812;2023-04-06T09:25:24;11.40;68.30
31967;DHT22;18496;52.042;6.812;2023-04-06T09:27:34;11.50;68.00
31967;DHT22;18496;52.042;6.812;2023-04-06T09:29:38;11.50;67.20
31967;DHT22;18496;52.042;6.812;2023-04-06T09:31:42;11.60;66.80
31967;DHT22;18496;52.042;6.812;2023-04-06T09:33:46;11.60;67.00
31967;DHT22;18496;52.042;6.812;2023-04-06T09:35:50;11.70;65.70
31967;DHT22;18496;52.042;6.812;2023-04-06T09:37:54;11.70;64.50
31967;DHT22;18496;52.042;6.812;2023-04-06T09:40:03;11.80;63.70
31967;DHT22;18496;52.042;6.812;2023-04-06T09:42:08;11.90;64.80
31967;DHT22;18496;52.042;6.812;2023-04-06T09:44:12;11.90;64.60
31967;DHT22;18496;52.042;6.812;2023-04-06T09:46:17;12.00;64.50
31967;DHT22;18496;52.042;6.812;2023-04-06T09:48:22;12.00;64.50
31967;DHT22;18496;52.042;6.812;2023-04-06T09:50:28;12.10;63.60
31967;DHT22;18496;52.042;6.812;2023-04-06T09:52:33;12.10;62.30
31967;DHT22;18496;52.042;6.812;2023-04-06T09:54:40;12.10;62.30
31967;DHT22;18496;52.042;6.812;2023-04-06T09:58:52;12.20;62.00
31967;DHT22;18496;52.042;6.812;2023-04-06T10:01:12;12.20;61.70
31967;DHT22;18496;52.042;6.812;2023-04-06T10:03:25;12.30;62.00
31967;DHT22;18496;52.042;6.812;2023-04-06T10:05:48;12.40;59.20
31967;DHT22;18496;52.042;6.812;2023-04-06T10:07:55;12.40;58.90
31967;DHT22;18496;52.042;6.812;2023-04-06T10:10:02;12.50;59.20
31967;DHT22;18496;52.042;6.812;2023-04-06T10:12:06;12.60;58.40
31967;DHT22;18496;52.042;6.812;2023-04-06T10:14:10;12.70;57.90
31967;DHT22;18496;52.042;6.812;2023-04-06T10:16:15;12.80;58.60
31967;DHT22;18496;52.042;6.812;2023-04-06T10:18:20;12.90;58.30
31967;DHT22;18496;52.042;6.812;2023-04-06T10:23:12;13.00;55.90
31967;DHT22;18496;52.042;6.812;2023-04-06T10:25:34;13.10;56.30
31967;DHT22;18496;52.042;6.812;2023-04-06T10:27:37;13.20;57.30
31967;DHT22;18496;52.042;6.812;2023-04-06T10:29:50;13.30;58.10
31967;DHT22;18496;52.042;6.812;2023-04-06T10:31:54;13.40;57.70
31967;DHT22;18496;52.042;6.812;2023-04-06T10:34:01;13.40;55.70
31967;DHT22;18496;52.042;6.812;2023-04-06T10:36:11;13.50;55.60
31967;DHT22;18496;52.042;6.812;2023-04-06T10:38:16;13.50;56.10
31967;DHT22;18496;52.042;6.812;2023-04-06T10:40:25;13.40;57.10
31967;DHT22;18496;52.042;6.812;2023-04-06T10:42:38;13.50;57.60
31967;DHT22;18496;52.042;6.812;2023-04-06T10:44:43;13.50;58.00
31967;DHT22;18496;52.042;6.812;2023-04-06T10:46:59;13.50;57.50
31967;DHT22;18496;52.042;6.812;2023-04-06T10:49:11;13.50;57.40
31967;DHT22;18496;52.042;6.812;2023-04-06T10:51:17;13.60;57.70
31967;DHT22;18496;52.042;6.812;2023-04-06T10:53:27;13.60;57.50
31967;DHT22;18496;52.042;6.812;2023-04-06T10:55:31;13.70;57.80
31967;DHT22;18496;52.042;6.812;2023-04-06T10:57:35;13.80;57.80
31967;DHT22;18496;52.042;6.812;2023-04-06T10:59:44;13.90;57.40
31967;DHT22;18496;52.042;6.812;2023-04-06T11:01:48;13.90;57.90
31967;DHT22;18496;52.042;6.812;2023-04-06T11:03:56;14.00;58.00
31967;DHT22;18496;52.042;6.812;2023-04-06T11:06:02;14.00;58.10
31967;DHT22;18496;52.042;6.812;2023-04-06T11:08:06;14.10;57.70
31967;DHT22;18496;52.042;6.812;2023-04-06T11:10:10;14.20;57.90
31967;DHT22;18496;52.042;6.812;2023-04-06T11:12:24;14.20;57.10
31967;DHT22;18496;52.042;6.812;2023-04-06T11:14:29;14.20;57.80
31967;DHT22;18496;52.042;6.812;2023-04-06T11:16:33;14.20;57.60
31967;DHT22;18496;52.042;6.812;2023-04-06T11:18:37;14.30;57.60
31967;DHT22;18496;52.042;6.812;2023-04-06T11:20:40;14.30;57.40
31967;DHT22;18496;52.042;6.812;2023-04-06T11:22:53;14.30;57.60
31967;DHT22;18496;52.042;6.812;2023-04-06T11:25:07;14.30;58.20
31967;DHT22;18496;52.042;6.812;2023-04-06T11:27:11;14.30;57.10
31967;DHT22;18496;52.042;6.812;2023-04-06T11:29:17;14.30;56.90
31967;DHT22;18496;52.042;6.812;2023-04-06T11:31:25;14.20;57.10
31967;DHT22;18496;52.042;6.812;2023-04-06T11:33:35;14.30;57.00
31967;DHT22;18496;52.042;6.812;2023-04-06T11:35:39;14.20;56.80
31967;DHT22;18496;52.042;6.812;2023-04-06T11:37:43;14.20;57.10
31967;DHT22;18496;52.042;6.812;2023-04-06T11:39:51;14.20;57.50
31967;DHT22;18496;52.042;6.812;2023-04-06T11:42:01;14.20;57.40
31967;DHT22;18496;52.042;6.812;2023-04-06T11:44:05;14.20;58.20
31967;DHT22;18496;52.042;6.812;2023-04-06T11:46:09;14.20;57.40
31967;DHT22;18496;52.042;6.812;2023-04-06T11:48:20;14.20;57.50
31967;DHT22;18496;52.042;6.812;2023-04-06T11:50:23;14.30;57.70
31967;DHT22;18496;52.042;6.812;2023-04-06T11:52:27;14.30;57.60
31967;DHT22;18496;52.042;6.812;2023-04-06T11:54:36;14.30;57.60
31967;DHT22;18496;52.042;6.812;2023-04-06T11:56:40;14.30;58.10
31967;DHT22;18496;52.042;6.812;2023-04-06T11:58:44;14.30;57.90
31967;DHT22;18496;52.042;6.812;2023-04-06T12:00:47;14.40;58.30
31967;DHT22;18496;52.042;6.812;2023-04-06T12:02:51;14.40;57.90
31967;DHT22;18496;52.042;6.812;2023-04-06T12:04:55;14.40;58.40
31967;DHT22;18496;52.042;6.812;2023-04-06T12:06:58;14.40;57.60
31967;DHT22;18496;52.042;6.812;2023-04-06T12:09:02;14.40;58.10
31967;DHT22;18496;52.042;6.812;2023-04-06T12:11:06;14.40;58.30
31967;DHT22;18496;52.042;6.812;2023-04-06T12:13:10;14.40;58.00
31967;DHT22;18496;52.042;6.812;2023-04-06T12:15:13;14.40;57.80
31967;DHT22;18496;52.042;6.812;2023-04-06T12:17:19;14.40;58.30
31967;DHT22;18496;52.042;6.812;2023-04-06T12:19:24;14.40;58.00
31967;DHT22;18496;52.042;6.812;2023-04-06T12:21:31;14.40;58.00
31967;DHT22;18496;52.042;6.812;2023-04-06T12:23:35;14.40;57.70
31967;DHT22;18496;52.042;6.812;2023-04-06T12:25:42;14.40;57.50
31967;DHT22;18496;52.042;6.812;2023-04-06T12:27:46;14.40;57.30
31967;DHT22;18496;52.042;6.812;2023-04-06T12:29:50;14.30;57.50
31967;DHT22;18496;52.042;6.812;2023-04-06T12:31:54;14.30;58.20
31967;DHT22;18496;52.042;6.812;2023-04-06T12:33:57;14.30;58.80
31967;DHT22;18496;52.042;6.812;2023-04-06T12:36:01;14.30;58.70
31967;DHT22;18496;52.042;6.812;2023-04-06T12:38:04;14.30;59.00
31967;DHT22;18496;52.042;6.812;2023-04-06T12:40:08;14.30;59.60
31967;DHT22;18496;52.042;6.812;2023-04-06T12:42:13;14.30;60.40
31967;DHT22;18496;52.042;6.812;2023-04-06T12:44:17;14.30;61.70
31967;DHT22;18496;52.042;6.812;2023-04-06T12:46:21;14.30;62.30
31967;DHT22;18496;52.042;6.812;2023-04-06T12:48:25;14.30;62.90
31967;DHT22;18496;52.042;6.812;2023-04-06T12:50:30;14.30;62.60
31967;DHT22;18496;52.042;6.812;2023-04-06T12:52:34;14.20;62.80
31967;DHT22;18496;52.042;6.812;2023-04-06T12:54:38;14.20;63.20
31967;DHT22;18496;52.042;6.812;2023-04-06T12:56:42;14.20;63.40
31967;DHT22;18496;52.042;6.812;2023-04-06T12:58:46;14.20;63.80
31967;DHT22;18496;52.042;6.812;2023-04-06T13:00:50;14.20;63.20
31967;DHT22;18496;52.042;6.812;2023-04-06T13:02:54;14.20;62.10
31967;DHT22;18496;52.042;6.812;2023-04-06T13:04:57;14.20;62.60
31967;DHT22;18496;52.042;6.812;2023-04-06T13:07:01;14.20;63.40
31967;DHT22;18496;52.042;6.812;2023-04-06T13:09:05;14.30;63.60
31967;DHT22;18496;52.042;6.812;2023-04-06T13:11:09;14.30;63.80
31967;DHT22;18496;52.042;6.812;2023-04-06T13:13:12;14.20;63.80
31967;DHT22;18496;52.042;6.812;2023-04-06T13:15:16;14.20;64.00
31967;DHT22;18496;52.042;6.812;2023-04-06T13:17:20;14.10;63.80
31967;DHT22;18496;52.042;6.812;2023-04-06T13:19:24;14.10;64.20
31967;DHT22;18496;52.042;6.812;2023-04-06T13:21:28;14.10;64.50
31967;DHT22;18496;52.042;6.812;2023-04-06T13:23:32;14.10;64.90
31967;DHT22;18496;52.042;6.812;2023-04-06T13:25:36;14.10;64.30
31967;DHT22;18496;52.042;6.812;2023-04-06T13:27:40;14.10;64.80
31967;DHT22;18496;52.042;6.812;2023-04-06T13:29:44;14.10;64.40
31967;DHT22;18496;52.042;6.812;2023-04-06T13:31:47;14.10;64.20